Blairsville, GA

11:02 AM EST on November 28, 2014 (GMT -0500)
Gilmer Memorial | Change Station
CLOSE
Current Station
Airport
Location: Gainesville,
Elevation: 1276 ft
Nearby Weather Stations

Elev 1276 ft 34.27 °N, 83.83 °W | Updated 9 minutes ago

Clear
Clear
39 °F
Feels Like 39 °F
N
0
Wind Variable Wind from North

Today
High -- | Low -- °F
--% Chance of Precip.
Yesterday
High -- | Low -- °F
Precip. -- in
7:22 AM 5:25 PM
Waxing Crescent, 41% visible
Pressure 30.40 in
Visibility 10.0 miles
Clouds Clear
Dew Point 17 °F
Humidity 41%
Rainfall 0.00 in
Snow Depth Not available.
UV 3 out of 12
Pollen .10 out of 12
Air Quality Not available.
Flu Activity Not available.
METAR KGVL 281553Z AUTO 00000KT 10SM CLR 04/M08 A3039 RMK AO2 SLP294 T00391083

More Conditions Fewer Conditions

Pressure 30.40 in
Visibility 10.0 miles
Clouds Clear
Dew Point 17 °F
Humidity 41%
Rainfall 0.00 in
Snow Depth Not available.
UV 3 out of 12
Pollen .10 out of 12
Air Quality Not available.
Flu Activity Not available.
METAR KGVL 281553Z AUTO 00000KT 10SM CLR 04/M08 A3039 RMK AO2 SLP294 T00391083

More Conditions Fewer Conditions

10-Day Weather Forecast

Almanac

Astronomy

Nov. 28, 2014 Rise Set
Actual Time
Civil Twilight
Nautical Twilight
Astronomical Twilight
Moon
Length of Visible Light
Length of Day
Tomorrow will be .
, % of the Moon is Illuminated

Today's Extremes

State Highs State Lows

Community

WunderPhotos

Upload Photos

1,774,231 photos uploaded!

WunderBlogs® & News

Nearby

Air Quality

  Air Quality AQ Index Pollutant
Not available.

Snow Depth

Station Depth Elevation

Earthquake Activity

City Distance Mag. Time & Date
Minimum magnitude displayed is 2.5.

Coastal Water Temperatures

Place Temperature

Nearby Weather Stations